TOS weather

Tromsø Airport
Tromsø, Troms, Norway

Public forecast

Using degrees Celsius for public forecast. Weather courtesy of forecast.io.

Current aviation weather report (METAR) for Tromsø Airport

Retrieved 2019/11/15 09:20 UTC (0 seconds ago):

ENTC 150920Z 20011KT 9999 -DZ SCT010 BKN013 02/00 Q1015 RMK WIND 2600FT 22007KT

Aviation forecast (TAF) for Tromsø Airport

Retrieved 2019/11/15 06:57 UTC (2 hours ago):

TAF ENTC 150500Z 1506/1606 19009KT 9999 FEW030 SCT050 TEMPO 1506/1521 4000 RADZ BKN008